McAdams, Mississippi
Current Conditions -  °F | °C
As of 7:53 PM on Saturday 25 Oct 2014 (Local Time) from KGWO Reporting Station
Clear Clear  
Wind Chill: 65°   Ceiling: Unl
Heat Index: 65°   Visibility: 10mi
Dew Point: 62°   Wind: 3mph
Humidity: 90%   Direction: 170°S
Pressure: 30.05"   Gusts: NA
Location:  33.02°N, 89.69°W
Report Text: KGWO 260053Z AUTO 17003KT 10SM CLR 18/17 A3005 RMK AO2 SLP175 T01830167 TSNO
Loading
Personal Weather Stations






























Interactive Weather Map
Tropical Storm Tracking
New forecast layout! Learn more

10-Day Weather Forecast

Advertisements
Track Severe Weather on mobile